Angora, Minnesota
Current Conditions -  °F | °C
As of 8:14 AM on Friday 19 Dec 2014 (Local Time) from KCQM Reporting Station
Overcast Overcast  
Wind Chill: 19°   Ceiling: 7000
Heat Index: 19°   Visibility: 10mi
Dew Point: 18°   Wind: 3mph
Humidity: 93%   Direction: 150°SSE
Pressure: 30.19"   Gusts: NA
Location:  47.77°N, 92.63°W
Report Text: KCQM 191414Z AUTO 15003KT 10SM SCT006 OVC070 M07/M08 A3019 RMK AO2
Loading
Personal Weather Stations






























Interactive Weather Map New forecast layout! Learn more

10-Day Weather Forecast

Advertisements
Track Severe Weather on mobile